Mirassol, Brazil
Current Conditions -  °F | °C
As of 10:00 AM on Friday 24 Oct 2014 (Local Time) from SBSR Reporting Station
Clear Clear  
Wind Chill: 81°   Ceiling: Unl
Heat Index: 81°   Visibility: 6mi
Dew Point: 61°   Wind: 9mph
Humidity: 51%   Direction: 90°E
Pressure: 30.09"   Gusts: NA
Location:  20.82°S, 49.52°W
Report Text: SBSR 241200Z 09008KT CAVOK 27/16 Q1019
Loading
Personal Weather Stations






























Interactive Weather Map
Tropical Storm Tracking
New forecast layout! Learn more

10-Day Weather Forecast

Advertisements
Track Severe Weather on mobile